createdAt,value
2022-08-11T00:02:00.878Z,4.22
2022-08-11T00:04:37.133Z,4.53
2022-08-11T00:07:07.202Z,4.63
2022-08-11T00:09:40.110Z,4.30
2022-08-11T00:12:15.746Z,4.38
2022-08-11T00:14:44.496Z,3.92
2022-08-11T00:17:14.767Z,4.28
2022-08-11T00:20:11.664Z,4.35
2022-08-11T00:22:34.832Z,4.13
2022-08-11T00:25:12.982Z,3.97
2022-08-11T00:27:41.810Z,4.53
2022-08-11T00:30:11.856Z,3.60
2022-08-11T00:32:42.258Z,3.88
2022-08-11T00:35:54.227Z,3.60
2022-08-11T00:38:02.496Z,3.60
2022-08-11T00:40:53.137Z,3.90
2022-08-11T00:43:59.046Z,4.00
2022-08-11T00:46:51.816Z,3.97
2022-08-11T00:49:53.430Z,3.83
2022-08-11T00:52:27.280Z,3.60
2022-08-11T00:55:17.471Z,3.70
2022-08-11T00:58:12.546Z,3.58
2022-08-11T01:00:59.355Z,3.30
2022-08-11T01:03:47.017Z,3.30
2022-08-11T01:06:38.128Z,3.63
2022-08-11T01:09:38.449Z,3.80
2022-08-11T01:12:43.034Z,3.40
2022-08-11T01:15:59.502Z,3.08
2022-08-11T01:18:52.033Z,3.50
2022-08-11T01:21:49.948Z,3.45
2022-08-11T01:24:47.565Z,3.20
2022-08-11T01:27:47.639Z,3.15
2022-08-11T01:30:37.238Z,3.13
2022-08-11T01:33:41.885Z,3.03
2022-08-11T01:36:53.627Z,3.08
2022-08-11T01:39:56.359Z,2.95
2022-08-11T01:42:45.591Z,2.75
2022-08-11T01:45:35.303Z,2.92
2022-08-11T01:48:20.935Z,2.90
2022-08-11T01:51:24.924Z,2.88
2022-08-11T01:54:27.252Z,2.95
2022-08-11T01:57:44.139Z,2.67
2022-08-11T02:00:18.530Z,2.70
2022-08-11T02:06:01.086Z,2.88
2022-08-11T02:08:44.174Z,2.80
2022-08-11T02:11:37.604Z,3.00
2022-08-11T02:14:21.397Z,2.55
2022-08-11T02:17:07.534Z,2.60
2022-08-11T02:20:07.500Z,2.60
2022-08-11T02:23:40.989Z,2.60
2022-08-11T02:26:26.068Z,2.60
2022-08-11T02:28:58.185Z,2.35
2022-08-11T02:32:24.609Z,2.70
2022-08-11T02:35:01.576Z,2.60
2022-08-11T02:37:34.360Z,2.60
2022-08-11T02:40:10.524Z,2.22
2022-08-11T02:42:46.844Z,2.30
2022-08-11T02:45:47.909Z,2.35
2022-08-11T02:49:00.651Z,2.35
2022-08-11T02:52:11.730Z,2.45
2022-08-11T02:54:44.205Z,2.10
2022-08-11T02:57:21.773Z,2.15
2022-08-11T03:00:09.414Z,2.42
2022-08-11T03:02:58.381Z,2.30
2022-08-11T03:05:44.984Z,2.10
2022-08-11T03:08:31.289Z,2.28
2022-08-11T03:11:30.257Z,2.20
2022-08-11T03:14:43.871Z,2.20
2022-08-11T03:17:29.987Z,2.00
2022-08-11T03:20:18.050Z,1.80
2022-08-11T03:22:55.730Z,2.20
2022-08-11T03:25:57.824Z,2.22
2022-08-11T03:28:42.481Z,2.40
2022-08-11T03:34:07.587Z,2.00
2022-08-11T03:37:14.832Z,2.20
2022-08-11T03:39:59.327Z,2.40
2022-08-11T03:42:43.375Z,1.85
2022-08-11T03:45:28.470Z,2.33
2022-08-11T03:48:08.226Z,1.92
2022-08-11T03:50:55.403Z,1.95
2022-08-11T03:53:45.398Z,1.90
2022-08-11T03:56:31.383Z,1.95
2022-08-11T03:59:39.618Z,1.67
2022-08-11T04:02:10.157Z,1.95
2022-08-11T04:05:13.584Z,1.70
2022-08-11T04:08:34.436Z,1.70
2022-08-11T04:11:34.530Z,1.85
2022-08-11T04:14:48.468Z,1.77
2022-08-11T04:17:38.706Z,2.15
2022-08-11T04:20:30.244Z,1.90
2022-08-11T04:24:35.011Z,1.73
2022-08-11T04:26:34.316Z,2.10
2022-08-11T04:29:36.222Z,2.00
2022-08-11T04:32:23.049Z,1.83
2022-08-11T04:35:16.475Z,1.85
2022-08-11T04:38:04.048Z,2.03
2022-08-11T04:41:16.382Z,1.80
2022-08-11T04:44:07.616Z,2.20
2022-08-11T04:46:51.157Z,2.00
2022-08-11T04:50:15.485Z,1.80
2022-08-11T04:53:13.227Z,1.95
2022-08-11T04:56:30.258Z,1.90
2022-08-11T04:59:31.778Z,2.05
2022-08-11T05:02:36.073Z,1.70
2022-08-11T05:05:31.065Z,1.70
2022-08-11T05:07:58.270Z,1.75
2022-08-11T05:11:03.326Z,1.70
2022-08-11T05:14:04.181Z,1.80
2022-08-11T05:17:14.053Z,1.70
2022-08-11T05:20:06.087Z,1.90
2022-08-11T05:22:53.503Z,1.70
2022-08-11T05:26:43.388Z,2.03
2022-08-11T05:29:20.061Z,1.90
2022-08-11T05:32:15.453Z,1.88
2022-08-11T05:34:55.048Z,2.20
2022-08-11T05:37:34.116Z,2.05
2022-08-11T05:40:26.596Z,1.77
2022-08-11T05:43:18.850Z,1.80
2022-08-11T05:46:19.732Z,1.88
2022-08-11T05:49:07.508Z,2.38
2022-08-11T05:52:05.730Z,1.92
2022-08-11T05:55:07.266Z,2.50
2022-08-11T05:57:49.054Z,2.55
2022-08-11T06:00:20.031Z,3.10
2022-08-11T06:03:01.323Z,3.17
2022-08-11T06:05:38.548Z,3.20
2022-08-11T06:08:14.997Z,4.07
2022-08-11T06:10:44.830Z,3.63
2022-08-11T06:13:16.778Z,4.45
2022-08-11T06:15:49.610Z,4.75
2022-08-11T06:18:18.413Z,4.65
2022-08-11T06:20:50.108Z,4.22
2022-08-11T06:23:23.087Z,4.90
2022-08-11T06:25:53.098Z,5.68
2022-08-11T06:28:33.240Z,5.70
2022-08-11T06:31:02.458Z,5.78
2022-08-11T06:33:43.913Z,5.40
2022-08-11T06:36:21.442Z,5.88
2022-08-11T06:39:08.581Z,5.00
2022-08-11T06:41:50.548Z,4.45
2022-08-11T06:44:27.965Z,4.57
2022-08-11T06:47:01.021Z,4.88
2022-08-11T06:49:52.387Z,4.50
2022-08-11T06:52:35.376Z,4.50
2022-08-11T06:55:55.480Z,4.53
2022-08-11T06:58:23.746Z,4.15
2022-08-11T07:00:56.828Z,4.50
2022-08-11T07:03:28.568Z,4.60
2022-08-11T07:06:22.688Z,4.32
2022-08-11T07:09:46.559Z,4.63
2022-08-11T07:13:03.124Z,4.13
2022-08-11T07:16:09.250Z,3.80
2022-08-11T07:18:53.388Z,3.85
2022-08-11T07:22:02.730Z,3.80
2022-08-11T07:25:13.939Z,3.50
2022-08-11T07:28:10.376Z,3.67
2022-08-11T07:30:42.056Z,3.78
2022-08-11T07:34:05.806Z,3.53
2022-08-11T07:36:03.437Z,3.40
2022-08-11T07:38:47.484Z,2.95
2022-08-11T07:41:18.230Z,3.42
2022-08-11T07:43:51.309Z,3.40
2022-08-11T07:46:38.580Z,3.40
2022-08-11T07:49:28.477Z,2.92
2022-08-11T07:52:15.216Z,2.92
2022-08-11T07:54:43.892Z,3.03
2022-08-11T07:58:13.873Z,3.42
2022-08-11T08:00:41.649Z,3.35
2022-08-11T08:03:28.215Z,3.08
2022-08-11T08:06:35.726Z,3.38
2022-08-11T08:09:21.630Z,3.20
2022-08-11T08:12:08.550Z,3.33
2022-08-11T08:14:56.190Z,3.08
2022-08-11T08:17:43.134Z,3.90
2022-08-11T08:20:14.482Z,2.80
2022-08-11T08:22:47.885Z,3.47
2022-08-11T08:25:18.005Z,3.13
2022-08-11T08:27:46.018Z,3.20
2022-08-11T08:30:32.412Z,3.17
2022-08-11T08:33:01.076Z,3.15
2022-08-11T08:35:32.905Z,3.40
2022-08-11T08:38:01.087Z,3.10
2022-08-11T08:40:28.636Z,3.20
2022-08-11T08:42:59.629Z,2.90
2022-08-11T08:45:27.631Z,2.83
2022-08-11T08:48:13.259Z,3.35
2022-08-11T08:51:08.054Z,3.15
2022-08-11T08:53:52.306Z,2.80
2022-08-11T08:56:28.283Z,3.10
2022-08-11T08:58:59.368Z,3.20
2022-08-11T09:01:42.683Z,2.97
2022-08-11T09:04:12.227Z,2.90
2022-08-11T09:06:43.802Z,2.50
2022-08-11T09:09:17.125Z,2.65
2022-08-11T09:11:50.972Z,2.67
2022-08-11T09:14:46.986Z,2.40
2022-08-11T09:17:15.194Z,2.22
2022-08-11T09:19:43.056Z,2.55
2022-08-11T09:25:29.350Z,2.60
2022-08-11T09:27:57.253Z,2.20
2022-08-11T09:30:26.727Z,2.25
2022-08-11T09:32:58.179Z,2.53
2022-08-11T09:35:30.264Z,2.22
2022-08-11T09:38:17.356Z,2.30
2022-08-11T09:40:47.448Z,2.20
2022-08-11T09:43:43.879Z,2.30
2022-08-11T09:46:13.124Z,2.20
2022-08-11T09:48:45.851Z,2.22
2022-08-11T09:51:14.654Z,2.00
2022-08-11T09:54:02.677Z,2.08
2022-08-11T09:56:49.856Z,2.22
2022-08-11T09:59:20.581Z,2.30
2022-08-11T10:01:59.221Z,2.28
2022-08-11T10:04:47.068Z,2.28
2022-08-11T10:07:16.754Z,1.90
2022-08-11T10:09:56.389Z,2.30
2022-08-11T10:12:31.859Z,2.53
2022-08-11T10:15:27.173Z,2.35
2022-08-11T10:18:19.133Z,2.42
2022-08-11T10:20:50.268Z,2.30
2022-08-11T10:24:01.112Z,2.50
2022-08-11T10:26:46.042Z,2.30
2022-08-11T10:29:37.355Z,2.78
2022-08-11T10:32:32.169Z,2.50
2022-08-11T10:35:02.740Z,2.58
2022-08-11T10:38:07.251Z,2.53
2022-08-11T10:40:25.085Z,2.22
2022-08-11T10:43:02.786Z,2.78
2022-08-11T10:46:13.722Z,2.20
2022-08-11T10:48:41.361Z,2.20
2022-08-11T10:51:15.123Z,2.20
2022-08-11T10:54:07.398Z,2.17
2022-08-11T10:57:00.477Z,2.00
2022-08-11T10:59:30.365Z,2.47
2022-08-11T11:01:59.072Z,2.03
2022-08-11T11:04:54.958Z,1.77
2022-08-11T11:07:27.439Z,1.85
2022-08-11T11:10:02.435Z,1.90
2022-08-11T11:13:00.875Z,1.90
2022-08-11T11:15:50.417Z,2.10
2022-08-11T11:18:35.742Z,2.00
2022-08-11T11:21:07.705Z,1.88
2022-08-11T11:23:56.119Z,2.08
2022-08-11T11:26:50.381Z,2.17
2022-08-11T11:29:35.699Z,2.28
2022-08-11T11:32:41.087Z,2.80
2022-08-11T11:35:19.925Z,2.80
2022-08-11T11:38:03.747Z,2.50
2022-08-11T11:40:33.041Z,2.42
2022-08-11T11:43:01.517Z,3.25
2022-08-11T11:45:30.002Z,2.38
2022-08-11T11:47:59.957Z,2.90
2022-08-11T11:50:34.793Z,2.78
2022-08-11T11:53:06.047Z,3.28
2022-08-11T11:55:34.293Z,3.75
2022-08-11T11:58:22.750Z,4.00
2022-08-11T12:01:10.885Z,5.40
2022-08-11T12:03:39.661Z,5.65
2022-08-11T12:06:12.143Z,6.57
2022-08-11T12:08:40.092Z,5.95
2022-08-11T12:11:29.542Z,6.43
2022-08-11T12:14:00.146Z,5.80
2022-08-11T12:16:34.220Z,7.65
2022-08-11T12:19:06.734Z,6.80
2022-08-11T12:21:36.110Z,6.35
2022-08-11T12:24:23.300Z,7.05
2022-08-11T12:27:18.240Z,6.53
2022-08-11T12:29:55.604Z,6.05
2022-08-11T12:32:26.242Z,7.57
2022-08-11T12:34:54.074Z,6.60
2022-08-11T12:37:33.023Z,7.43
2022-08-11T12:41:11.172Z,8.13
2022-08-11T12:43:41.650Z,9.23
2022-08-11T12:46:14.395Z,8.52
2022-08-11T12:49:05.011Z,8.25
2022-08-11T12:52:13.261Z,7.40
2022-08-11T12:55:03.624Z,10.00
2022-08-11T12:58:03.521Z,10.15
2022-08-11T13:00:50.606Z,12.02
2022-08-11T13:03:39.783Z,10.95
2022-08-11T13:06:08.734Z,16.00
2022-08-11T13:08:39.776Z,13.88
2022-08-11T13:11:54.646Z,12.32
2022-08-11T13:14:16.783Z,10.63
2022-08-11T13:17:04.400Z,10.63
2022-08-11T13:19:33.028Z,9.75
2022-08-11T13:22:02.392Z,9.95
2022-08-11T13:24:30.359Z,10.70
2022-08-11T13:26:58.880Z,10.27
2022-08-11T13:29:27.860Z,9.98
2022-08-11T13:31:58.374Z,10.45
2022-08-11T13:34:27.525Z,11.10
2022-08-11T13:36:58.184Z,9.93
2022-08-11T13:39:30.204Z,11.95
2022-08-11T13:42:00.430Z,11.45
2022-08-11T13:44:36.038Z,11.68
2022-08-11T13:47:06.732Z,11.98
2022-08-11T13:49:39.870Z,11.50
2022-08-11T13:52:15.337Z,10.30
2022-08-11T13:54:45.626Z,10.60
2022-08-11T13:58:08.177Z,9.82
2022-08-11T14:00:20.913Z,11.18
2022-08-11T14:02:55.798Z,11.90
2022-08-11T14:05:52.202Z,11.13
2022-08-11T14:08:38.086Z,11.07
2022-08-11T14:12:23.794Z,11.35
2022-08-11T14:14:21.312Z,12.00
2022-08-11T14:16:51.106Z,10.63
2022-08-11T14:19:22.700Z,10.82
2022-08-11T14:22:10.120Z,10.32
2022-08-11T14:24:40.326Z,10.30
2022-08-11T14:28:32.556Z,10.25
2022-08-11T14:29:59.789Z,11.02
2022-08-11T14:32:27.711Z,10.13
2022-08-11T14:34:55.690Z,10.43
2022-08-11T14:37:26.206Z,10.18
2022-08-11T14:40:03.794Z,9.95
2022-08-11T14:42:50.041Z,10.65
2022-08-11T14:45:57.992Z,9.70
2022-08-11T14:48:24.482Z,9.95
2022-08-11T14:50:52.944Z,9.65
2022-08-11T14:53:23.360Z,9.30
2022-08-11T14:56:10.622Z,9.32
2022-08-11T14:58:40.267Z,9.27
2022-08-11T15:01:28.001Z,8.90
2022-08-11T15:04:34.235Z,9.30
2022-08-11T15:06:44.064Z,9.30
2022-08-11T15:09:11.478Z,9.25
2022-08-11T15:11:58.205Z,8.85
2022-08-11T15:14:44.362Z,9.40
2022-08-11T15:17:13.033Z,9.57
2022-08-11T15:20:02.323Z,8.70
2022-08-11T15:22:48.739Z,8.85
2022-08-11T15:25:16.149Z,8.73
2022-08-11T15:28:04.829Z,9.57
2022-08-11T15:30:52.841Z,9.00
2022-08-11T15:33:40.599Z,9.25
2022-08-11T15:36:29.589Z,8.68
2022-08-11T15:39:21.106Z,8.25
2022-08-11T15:42:27.714Z,8.80
2022-08-11T15:45:19.103Z,9.05
2022-08-11T15:48:05.340Z,8.63
2022-08-11T15:50:38.538Z,7.78
2022-08-11T15:53:32.244Z,8.20
2022-08-11T15:56:01.095Z,8.75
2022-08-11T15:59:33.698Z,13.60
2022-08-11T16:02:02.528Z,15.85
2022-08-11T16:04:32.775Z,16.67
2022-08-11T16:07:07.342Z,17.48
2022-08-11T16:10:02.576Z,15.65
2022-08-11T16:13:06.170Z,18.15
2022-08-11T16:15:55.692Z,16.73
2022-08-11T16:18:40.455Z,19.77
2022-08-11T16:21:35.759Z,24.60
2022-08-11T16:25:58.127Z,21.75
2022-08-11T16:27:09.131Z,22.27
2022-08-11T16:29:44.789Z,24.23
2022-08-11T16:32:20.518Z,25.67
2022-08-11T16:35:19.279Z,21.92
2022-08-11T16:38:07.502Z,18.98
2022-08-11T16:40:35.574Z,20.02
2022-08-11T16:43:26.128Z,21.92
2022-08-11T16:46:13.938Z,20.10
2022-08-11T16:48:45.898Z,19.55
2022-08-11T16:51:14.522Z,17.05
2022-08-11T16:53:54.838Z,14.57
2022-08-11T16:56:53.196Z,15.80
2022-08-11T16:59:36.069Z,14.00
2022-08-11T17:02:39.390Z,14.15
2022-08-11T17:05:38.194Z,13.32
2022-08-11T17:08:27.194Z,11.65
2022-08-11T17:11:18.905Z,9.50
2022-08-11T17:14:36.047Z,9.35
2022-08-11T17:17:07.255Z,8.52
2022-08-11T17:20:40.138Z,7.28
2022-08-11T17:22:43.993Z,7.70
2022-08-11T17:25:13.351Z,6.80
2022-08-11T17:27:42.816Z,6.25
2022-08-11T17:30:12.059Z,5.65
2022-08-11T17:33:08.030Z,5.07
2022-08-11T17:35:38.990Z,5.13
2022-08-11T17:38:14.291Z,4.50
2022-08-11T17:41:05.209Z,4.50
2022-08-11T17:43:52.613Z,3.60
2022-08-11T17:46:39.749Z,3.70
2022-08-11T17:49:09.345Z,3.50
2022-08-11T17:51:57.406Z,3.00
2022-08-11T17:54:44.684Z,3.13
2022-08-11T17:57:34.195Z,2.38
2022-08-11T18:00:02.650Z,2.55
2022-08-11T18:02:53.577Z,2.50
2022-08-11T18:05:25.382Z,2.38
2022-08-11T18:08:14.345Z,2.60
2022-08-11T18:11:01.472Z,2.10
2022-08-11T18:13:55.147Z,2.30
2022-08-11T18:16:41.823Z,2.50
2022-08-11T18:19:27.602Z,2.50
2022-08-11T18:22:23.819Z,2.60
2022-08-11T18:25:27.497Z,2.20
2022-08-11T18:28:14.782Z,7.40
2022-08-11T18:31:05.316Z,3.00
2022-08-11T18:34:12.859Z,2.78
2022-08-11T18:37:09.640Z,2.20
2022-08-11T18:40:09.351Z,2.00
2022-08-11T18:42:57.802Z,2.10
2022-08-11T18:45:45.610Z,2.13
2022-08-11T18:48:41.507Z,2.00
2022-08-11T18:51:36.926Z,1.95
2022-08-11T18:54:28.137Z,1.73
2022-08-11T18:57:16.048Z,1.88
2022-08-11T19:00:04.522Z,1.90
2022-08-11T19:02:53.815Z,1.70
2022-08-11T19:06:32.114Z,1.63
2022-08-11T19:08:50.717Z,1.98
2022-08-11T19:11:42.750Z,1.60
2022-08-11T19:14:31.673Z,1.70
2022-08-11T19:17:44.949Z,1.48
2022-08-11T19:20:43.139Z,1.77
2022-08-11T19:23:31.546Z,1.95
2022-08-11T19:26:18.860Z,1.70
2022-08-11T19:29:07.629Z,1.77
2022-08-11T19:31:54.915Z,1.38
2022-08-11T19:34:44.524Z,1.50
2022-08-11T19:37:31.166Z,1.50
2022-08-11T19:40:28.717Z,1.70
2022-08-11T19:43:23.647Z,1.50
2022-08-11T19:46:16.403Z,1.60
2022-08-11T19:49:09.536Z,1.33
2022-08-11T19:51:57.681Z,1.65
2022-08-11T19:54:50.109Z,1.48
2022-08-11T19:57:40.122Z,1.50
2022-08-11T20:00:30.883Z,1.80
2022-08-11T20:03:19.535Z,2.40
2022-08-11T20:06:06.882Z,2.17
2022-08-11T20:08:58.580Z,1.90
2022-08-11T20:11:50.719Z,2.47
2022-08-11T20:14:38.765Z,2.80
2022-08-11T20:17:27.516Z,3.45
2022-08-11T20:20:14.764Z,4.28
2022-08-11T20:23:03.871Z,3.95
2022-08-11T20:25:55.751Z,3.90
2022-08-11T20:28:50.565Z,3.63
2022-08-11T20:31:39.667Z,4.07
2022-08-11T20:34:28.816Z,3.55
2022-08-11T20:37:18.852Z,3.75
2022-08-11T20:40:06.053Z,3.85
2022-08-11T20:42:53.825Z,4.40
2022-08-11T20:45:51.998Z,5.72
2022-08-11T20:48:43.801Z,4.72
2022-08-11T20:51:33.787Z,4.65
2022-08-11T20:54:38.276Z,4.80
2022-08-11T20:57:54.434Z,5.05
2022-08-11T21:00:40.006Z,5.30
2022-08-11T21:03:36.167Z,4.75
2022-08-11T21:06:33.377Z,5.10
2022-08-11T21:09:23.967Z,5.40
2022-08-11T21:12:29.660Z,5.28
2022-08-11T21:15:38.787Z,5.60
2022-08-11T21:18:28.537Z,5.68
2022-08-11T21:21:19.203Z,5.70
2022-08-11T21:24:07.466Z,5.63
2022-08-11T21:27:03.412Z,5.95
2022-08-11T21:29:56.348Z,6.60
2022-08-11T21:32:44.549Z,6.28
2022-08-11T21:35:31.277Z,6.25
2022-08-11T21:38:20.106Z,6.15
2022-08-11T21:41:09.790Z,6.57
2022-08-11T21:43:59.228Z,6.82
2022-08-11T21:46:45.967Z,6.57
2022-08-11T21:49:32.720Z,6.88
2022-08-11T21:52:19.014Z,6.80
2022-08-11T21:55:05.452Z,7.28
2022-08-11T21:57:51.804Z,7.70
2022-08-11T22:00:37.696Z,7.53
2022-08-11T22:03:25.090Z,6.90
2022-08-11T22:06:12.575Z,7.72
2022-08-11T22:09:00.576Z,6.78
2022-08-11T22:11:47.116Z,7.75
2022-08-11T22:14:33.170Z,7.32
2022-08-11T22:17:19.171Z,7.57
2022-08-11T22:20:05.401Z,7.50
2022-08-11T22:22:53.035Z,7.25
2022-08-11T22:25:51.217Z,6.95
2022-08-11T22:28:43.013Z,6.93
2022-08-11T22:31:30.281Z,6.75
2022-08-11T22:34:16.426Z,6.55
2022-08-11T22:37:04.909Z,6.53
2022-08-11T22:40:01.603Z,6.57
2022-08-11T22:42:49.184Z,6.07
2022-08-11T22:45:35.421Z,6.13
2022-08-11T22:48:24.449Z,6.05
2022-08-11T22:51:10.702Z,5.65
2022-08-11T22:53:59.079Z,5.30
2022-08-11T22:56:50.182Z,5.60
2022-08-11T22:59:38.104Z,5.78
2022-08-11T23:02:25.768Z,5.95
2022-08-11T23:05:12.630Z,5.38
2022-08-11T23:07:59.615Z,5.40
2022-08-11T23:10:46.687Z,5.53
2022-08-11T23:13:33.342Z,5.50
2022-08-11T23:16:20.500Z,5.20
2022-08-11T23:19:06.983Z,5.43
2022-08-11T23:21:54.224Z,4.95
2022-08-11T23:24:41.258Z,4.68
2022-08-11T23:27:28.839Z,4.55
2022-08-11T23:30:19.145Z,4.85
2022-08-11T23:33:07.435Z,4.78
2022-08-11T23:35:58.051Z,4.30
2022-08-11T23:38:48.155Z,4.25
2022-08-11T23:41:35.494Z,5.18
2022-08-11T23:44:23.020Z,4.40
2022-08-11T23:47:12.134Z,4.40
2022-08-11T23:49:58.663Z,4.30
2022-08-11T23:52:46.252Z,4.70
2022-08-11T23:55:32.330Z,4.60
2022-08-11T23:58:18.934Z,3.75
